Mukdahan, Thailand
Current Conditions -  °F | °C
As of 7:00 PM on Monday 24 Nov 2014 (Local Time) from VTUU Reporting Station
Scattered Clouds Scattered Clouds  
Wind Chill: 79°   Ceiling: Unl
Heat Index: 82°   Visibility: 6mi
Dew Point: 72°   Wind: 2mph
Humidity: 78%   Direction: 10°N
Pressure: 29.8"   Gusts: NA
Location:  16.54°N, 104.72°E
Report Text: VTUU 241200Z 01002KT 9000 FEW025 SCT300 26/22 Q1009 A2981 NOSIG
Loading
Personal Weather Stations






























Interactive Weather Map New forecast layout! Learn more

10-Day Weather Forecast

Advertisements
Track Severe Weather on mobile